createdAt,value
2023-05-19T00:01:38.908Z,101080.75
2023-05-19T00:05:47.653Z,101090.75
2023-05-19T00:09:53.684Z,101097.16
2023-05-19T00:13:55.351Z,101094.03
2023-05-19T00:17:55.720Z,101097.72
2023-05-19T00:21:59.481Z,101087.44
2023-05-19T00:26:00.450Z,101091.06
2023-05-19T00:30:04.164Z,101097.16
2023-05-19T00:34:03.868Z,101098.91
2023-05-19T00:38:06.766Z,101100.63
2023-05-19T00:42:21.349Z,101106.66
2023-05-19T00:46:23.013Z,101115.97
2023-05-19T00:50:24.162Z,101118.81
2023-05-19T00:54:27.051Z,101119.69
2023-05-19T00:58:30.521Z,101126.66
2023-05-19T01:02:33.140Z,101121.34
2023-05-19T01:06:34.222Z,101127.38
2023-05-19T01:10:40.075Z,101124.78
2023-05-19T01:14:40.813Z,101114.22
2023-05-19T01:18:50.247Z,101115.03
2023-05-19T01:23:05.345Z,101116.94
2023-05-19T01:27:32.720Z,101123.09
2023-05-19T01:31:37.501Z,101127.75
2023-05-19T01:35:44.938Z,101121.75
2023-05-19T01:39:48.163Z,101120.75
2023-05-19T01:43:51.472Z,101112.78
2023-05-19T01:48:03.055Z,101115.31
2023-05-19T01:52:09.041Z,101113.50
2023-05-19T01:56:25.550Z,101117.06
2023-05-19T02:00:31.129Z,101120.44
2023-05-19T02:04:42.270Z,101115.09
2023-05-19T02:08:46.214Z,101112.38
2023-05-19T02:17:10.427Z,101121.41
2023-05-19T02:21:20.844Z,101125.81
2023-05-19T02:25:24.818Z,101138.03
2023-05-19T02:29:33.492Z,101140.53
2023-05-19T02:33:34.193Z,101152.03
2023-05-19T02:37:45.278Z,101154.72
2023-05-19T02:41:46.234Z,101156.38
2023-05-19T02:45:47.189Z,101160.69
2023-05-19T02:49:47.818Z,101166.78
2023-05-19T02:53:52.257Z,101165.91
2023-05-19T02:57:52.381Z,101176.66
2023-05-19T03:01:53.115Z,101183.59
2023-05-19T03:05:53.686Z,101180.84
2023-05-19T03:09:59.226Z,101180.81
2023-05-19T03:14:00.256Z,101186.97
2023-05-19T03:18:02.988Z,101194.69
2023-05-19T03:22:05.044Z,101193.78
2023-05-19T03:26:08.445Z,101205.00
2023-05-19T03:30:08.995Z,101211.28
2023-05-19T03:34:12.803Z,101215.78
2023-05-19T03:38:19.452Z,101222.81
2023-05-19T03:42:25.864Z,101228.50
2023-05-19T03:46:26.711Z,101228.31
2023-05-19T03:50:32.210Z,101232.16
2023-05-19T03:54:32.805Z,101236.91
2023-05-19T03:58:36.923Z,101238.03
2023-05-19T04:02:37.371Z,101238.53
2023-05-19T04:06:40.978Z,101241.97
2023-05-19T04:10:42.437Z,101242.72
2023-05-19T04:14:45.158Z,101235.41
2023-05-19T04:18:46.612Z,101242.94
2023-05-19T04:22:46.925Z,101237.06
2023-05-19T04:26:48.076Z,101240.72
2023-05-19T04:30:51.869Z,101253.94
2023-05-19T04:34:51.818Z,101244.31
2023-05-19T04:38:54.722Z,101247.47
2023-05-19T04:42:54.922Z,101261.72
2023-05-19T04:46:58.513Z,101258.44
2023-05-19T04:51:01.567Z,101252.28
2023-05-19T04:55:06.305Z,101250.44
2023-05-19T04:59:06.967Z,101258.00
2023-05-19T05:03:22.972Z,101271.06
2023-05-19T05:07:23.608Z,101265.34
2023-05-19T05:11:25.442Z,101272.03
2023-05-19T05:15:31.570Z,101275.19
2023-05-19T05:19:43.111Z,101277.69
2023-05-19T05:23:43.674Z,101281.19
2023-05-19T05:27:50.930Z,101279.94
2023-05-19T05:31:51.408Z,101288.97
2023-05-19T05:35:57.961Z,101291.50
2023-05-19T05:39:58.610Z,101292.84
2023-05-19T05:43:59.428Z,101299.84
2023-05-19T05:48:01.224Z,101297.09
2023-05-19T05:52:14.256Z,101305.16
2023-05-19T05:56:17.259Z,101301.00
2023-05-19T06:00:23.389Z,101307.69
2023-05-19T06:04:28.676Z,101315.16
2023-05-19T06:08:32.191Z,101314.13
2023-05-19T06:17:47.165Z,101319.00
2023-05-19T06:21:58.167Z,101327.63
2023-05-19T06:26:12.366Z,101327.56
2023-05-19T06:30:17.936Z,101340.03
2023-05-19T06:34:23.231Z,101337.84
2023-05-19T06:38:23.791Z,101343.66
2023-05-19T06:42:34.954Z,101342.63
2023-05-19T06:46:45.667Z,101343.56
2023-05-19T06:50:47.837Z,101349.34
2023-05-19T06:54:48.788Z,101354.31
2023-05-19T06:58:53.497Z,101349.25
2023-05-19T07:02:59.926Z,101342.94
2023-05-19T07:07:10.121Z,101350.84
2023-05-19T07:11:53.715Z,101345.97
2023-05-19T07:15:55.717Z,101337.09
2023-05-19T07:20:00.244Z,101331.50
2023-05-19T07:24:30.759Z,101339.50
2023-05-19T07:28:39.895Z,101336.38
2023-05-19T07:32:52.617Z,101337.13
2023-05-19T07:37:02.277Z,101342.47
2023-05-19T07:41:05.667Z,101341.41
2023-05-19T07:45:09.753Z,101334.16
2023-05-19T07:49:12.686Z,101339.25
2023-05-19T07:53:14.062Z,101332.63
2023-05-19T07:57:15.317Z,101325.00
2023-05-19T08:01:16.057Z,101332.69
2023-05-19T08:05:20.593Z,101331.13
2023-05-19T08:09:21.200Z,101334.41
2023-05-19T08:13:22.344Z,101335.50
2023-05-19T08:17:26.342Z,101332.50
2023-05-19T08:21:29.287Z,101333.75
2023-05-19T08:25:30.024Z,101329.75
2023-05-19T08:29:32.416Z,101336.47
2023-05-19T08:33:33.077Z,101341.22
2023-05-19T08:37:38.023Z,101336.81
2023-05-19T08:41:52.061Z,101328.41
2023-05-19T08:45:55.539Z,101333.38
2023-05-19T08:50:22.028Z,101329.28
2023-05-19T08:54:27.686Z,101333.66
2023-05-19T08:58:29.438Z,101328.50
2023-05-19T09:02:50.500Z,101321.72
2023-05-19T09:07:04.190Z,101323.63
2023-05-19T09:11:11.817Z,101313.81
2023-05-19T09:15:38.807Z,101310.53
2023-05-19T09:19:53.476Z,101319.66
2023-05-19T09:23:57.774Z,101315.03
2023-05-19T09:28:04.274Z,101320.00
2023-05-19T09:32:10.158Z,101306.69
2023-05-19T09:36:13.789Z,101311.91
2023-05-19T09:40:19.980Z,101301.81
2023-05-19T09:44:30.383Z,101307.16
2023-05-19T09:48:35.552Z,101303.53
2023-05-19T09:52:39.560Z,101295.38
2023-05-19T09:56:41.934Z,101291.44
2023-05-19T10:01:13.332Z,101292.63
2023-05-19T10:05:20.591Z,101284.06
2023-05-19T10:09:34.718Z,101285.84
2023-05-19T10:13:38.743Z,101284.06
2023-05-19T10:17:41.189Z,101288.31
2023-05-19T10:21:43.642Z,101281.25
2023-05-19T10:25:44.866Z,101284.31
2023-05-19T10:29:48.068Z,101281.63
2023-05-19T10:34:03.880Z,101272.63
2023-05-19T10:38:15.160Z,101263.38
2023-05-19T10:42:18.040Z,101267.00
2023-05-19T10:46:19.238Z,101247.66
2023-05-19T10:50:20.088Z,101259.09
2023-05-19T10:54:43.755Z,101260.50
2023-05-19T10:58:52.209Z,101250.97
2023-05-19T11:02:56.254Z,101255.06
2023-05-19T11:06:57.880Z,101242.94
2023-05-19T11:11:14.605Z,101244.09
2023-05-19T11:15:14.729Z,101233.16
2023-05-19T11:19:20.220Z,101227.44
2023-05-19T11:23:24.249Z,101226.31
2023-05-19T11:27:31.728Z,101226.59
2023-05-19T11:31:39.779Z,101224.81
2023-05-19T11:35:41.210Z,101223.66
2023-05-19T11:39:45.192Z,101212.72
2023-05-19T11:43:49.734Z,101208.41
2023-05-19T11:48:01.459Z,101213.84
2023-05-19T11:52:03.084Z,101208.31
2023-05-19T11:56:06.098Z,101209.19
2023-05-19T12:00:14.513Z,101186.25
2023-05-19T12:04:19.056Z,101186.81
2023-05-19T12:08:27.901Z,101171.31
2023-05-19T12:12:32.200Z,101168.84
2023-05-19T12:16:42.430Z,101166.88
2023-05-19T12:20:49.451Z,101156.72
2023-05-19T12:24:54.112Z,101154.69
2023-05-19T12:29:07.181Z,101152.50
2023-05-19T12:33:17.513Z,101153.44
2023-05-19T12:37:30.952Z,101148.25
2023-05-19T12:41:41.211Z,101143.47
2023-05-19T12:46:02.326Z,101141.00
2023-05-19T12:50:16.498Z,101136.19
2023-05-19T12:54:27.457Z,101139.38
2023-05-19T12:58:37.248Z,101139.09
2023-05-19T13:02:55.469Z,101140.50
2023-05-19T13:07:09.213Z,101124.44
2023-05-19T13:11:28.029Z,101124.75
2023-05-19T13:15:42.176Z,101126.81
2023-05-19T13:19:45.932Z,101133.09
2023-05-19T13:24:08.341Z,101117.50
2023-05-19T13:28:27.114Z,101127.59
2023-05-19T13:32:38.324Z,101135.59
2023-05-19T13:42:20.950Z,101126.81
2023-05-19T13:46:59.957Z,101129.84
2023-05-19T13:56:16.044Z,101154.91
2023-05-19T14:01:20.904Z,101153.47
2023-05-19T14:06:13.197Z,101159.19
2023-05-19T14:10:58.117Z,101199.81
2023-05-19T14:15:33.490Z,101201.19
2023-05-19T14:20:08.096Z,101244.16
2023-05-19T14:35:23.977Z,101294.41
2023-05-19T14:44:54.147Z,101269.75
2023-05-19T14:49:11.173Z,101242.09
2023-05-19T14:53:43.867Z,101249.63
2023-05-19T15:08:27.382Z,101264.81
2023-05-19T15:12:51.151Z,101268.91
2023-05-19T15:21:51.740Z,101294.41
2023-05-19T15:26:10.287Z,101323.28
2023-05-19T15:30:20.529Z,101326.03
2023-05-19T15:34:30.770Z,101324.88
2023-05-19T15:38:48.464Z,101324.16
2023-05-19T15:42:55.157Z,101329.28
2023-05-19T15:47:54.660Z,101335.13
2023-05-19T15:52:05.064Z,101308.31
2023-05-19T15:56:15.190Z,101328.91
2023-05-19T16:00:16.654Z,101325.75
2023-05-19T16:04:19.524Z,101331.94
2023-05-19T16:08:21.436Z,101317.53
2023-05-19T16:12:34.180Z,101301.53
2023-05-19T16:16:42.321Z,101295.97
2023-05-19T16:20:47.743Z,101298.81
2023-05-19T16:25:10.321Z,101291.31
2023-05-19T16:29:12.774Z,101295.97
2023-05-19T16:33:35.060Z,101293.50
2023-05-19T16:38:06.690Z,101285.09
2023-05-19T16:42:17.183Z,101281.91
2023-05-19T16:46:57.861Z,101281.84
2023-05-19T16:55:50.534Z,101286.13
2023-05-19T17:00:07.439Z,101299.19
2023-05-19T17:04:30.019Z,101345.81
2023-05-19T17:08:56.480Z,101345.16
2023-05-19T17:13:36.932Z,101350.66
2023-05-19T17:21:57.793Z,101358.56
2023-05-19T17:26:14.525Z,101358.69
2023-05-19T17:30:25.580Z,101350.66
2023-05-19T17:34:53.612Z,101344.28
2023-05-19T17:39:26.357Z,101338.13
2023-05-19T17:43:38.377Z,101338.38
2023-05-19T17:48:07.093Z,101342.13
2023-05-19T17:52:41.111Z,101331.81
2023-05-19T17:56:49.770Z,101341.59
2023-05-19T18:01:08.193Z,101331.09
2023-05-19T18:05:19.685Z,101333.06
2023-05-19T18:09:48.178Z,101343.13
2023-05-19T18:14:00.598Z,101359.22
2023-05-19T18:18:19.162Z,101362.75
2023-05-19T18:22:40.183Z,101375.69
2023-05-19T18:27:04.855Z,101374.09
2023-05-19T18:31:20.785Z,101387.16
2023-05-19T18:35:44.453Z,101386.75
2023-05-19T18:39:44.153Z,101387.97
2023-05-19T18:43:50.242Z,101389.69
2023-05-19T18:48:02.127Z,101392.09
2023-05-19T18:52:08.439Z,101386.28
2023-05-19T18:56:19.022Z,101391.03
2023-05-19T19:00:47.934Z,101395.31
2023-05-19T19:04:56.430Z,101391.56
2023-05-19T19:09:22.576Z,101399.31
2023-05-19T19:13:27.511Z,101388.22
2023-05-19T19:17:43.118Z,101395.03
2023-05-19T19:22:13.554Z,101413.91
2023-05-19T19:26:31.802Z,101412.38
2023-05-19T19:30:44.015Z,101429.41
2023-05-19T19:35:20.927Z,101424.72
2023-05-19T19:39:45.625Z,101428.38
2023-05-19T19:44:05.208Z,101425.72
2023-05-19T19:48:31.645Z,101433.09
2023-05-19T19:52:40.751Z,101429.22
2023-05-19T19:56:51.479Z,101428.75
2023-05-19T20:01:25.198Z,101435.97
2023-05-19T20:05:37.095Z,101440.03
2023-05-19T20:09:45.732Z,101431.03
2023-05-19T20:14:05.113Z,101434.22
2023-05-19T20:18:15.070Z,101428.78
2023-05-19T20:22:24.825Z,101423.41
2023-05-19T20:26:37.360Z,101426.41
2023-05-19T20:30:45.769Z,101423.31
2023-05-19T20:34:51.950Z,101427.88
2023-05-19T20:38:55.876Z,101424.06
2023-05-19T20:43:06.740Z,101440.50
2023-05-19T20:47:11.155Z,101432.34
2023-05-19T20:51:43.552Z,101431.63
2023-05-19T20:55:59.044Z,101439.94
2023-05-19T21:00:01.328Z,101446.56
2023-05-19T21:04:15.720Z,101444.63
2023-05-19T21:08:19.402Z,101438.50
2023-05-19T21:12:23.676Z,101439.38
2023-05-19T21:16:25.618Z,101439.09
2023-05-19T21:20:41.803Z,101436.16
2023-05-19T21:24:51.767Z,101453.19
2023-05-19T21:28:55.990Z,101456.66
2023-05-19T21:32:57.065Z,101451.91
2023-05-19T21:37:11.412Z,101451.63
2023-05-19T22:00:41.435Z,101454.66
2023-05-19T22:04:41.509Z,101459.00
2023-05-19T22:08:40.496Z,101460.59
2023-05-19T22:12:39.851Z,101461.53
2023-05-19T22:16:41.425Z,101450.03
2023-05-19T22:20:40.467Z,101442.84
2023-05-19T22:24:39.803Z,101439.34
2023-05-19T22:28:39.103Z,101435.19
2023-05-19T22:32:40.619Z,101440.84
2023-05-19T22:36:41.012Z,101433.19
2023-05-19T22:40:40.607Z,101435.28
2023-05-19T22:44:39.922Z,101429.47
2023-05-19T22:48:41.532Z,101427.97
2023-05-19T22:52:40.948Z,101433.91
2023-05-19T22:56:40.302Z,101437.00
2023-05-19T23:00:39.624Z,101438.66
2023-05-19T23:04:41.229Z,101452.31
2023-05-19T23:08:40.281Z,101449.16
2023-05-19T23:12:39.708Z,101435.97
2023-05-19T23:16:39.009Z,101432.56
2023-05-19T23:20:40.434Z,101426.25
2023-05-19T23:24:39.739Z,101435.94
2023-05-19T23:28:39.084Z,101434.72
2023-05-19T23:32:37.951Z,101430.47
2023-05-19T23:36:39.483Z,101429.72
2023-05-19T23:40:38.768Z,101423.00
2023-05-19T23:44:38.213Z,101423.38
2023-05-19T23:48:37.515Z,101415.31
2023-05-19T23:52:38.938Z,101405.22
2023-05-19T23:56:38.289Z,101395.19
